createdAt,value
2022-11-16T00:02:13.762Z,100.00
2022-11-16T00:04:40.556Z,100.00
2022-11-16T00:07:07.591Z,100.00
2022-11-16T00:09:34.326Z,100.00
2022-11-16T00:12:03.990Z,100.00
2022-11-16T00:14:33.061Z,100.00
2022-11-16T00:17:00.437Z,100.00
2022-11-16T00:19:28.035Z,100.00
2022-11-16T00:21:55.031Z,100.00
2022-11-16T00:24:23.356Z,100.00
2022-11-16T00:26:50.727Z,100.00
2022-11-16T00:29:20.167Z,100.00
2022-11-16T00:31:47.500Z,100.00
2022-11-16T00:34:14.542Z,100.00
2022-11-16T00:36:41.225Z,100.00
2022-11-16T00:39:10.176Z,100.00
2022-11-16T00:41:36.697Z,100.00
2022-11-16T00:44:03.239Z,100.00
2022-11-16T00:46:29.771Z,100.00
2022-11-16T00:48:56.337Z,100.00
2022-11-16T00:51:22.853Z,100.00
2022-11-16T00:53:49.379Z,100.00
2022-11-16T00:56:15.941Z,100.00
2022-11-16T00:58:42.454Z,100.00
2022-11-16T01:01:11.262Z,100.00
2022-11-16T01:03:39.475Z,100.00
2022-11-16T01:06:08.990Z,100.00
2022-11-16T01:08:37.239Z,100.00
2022-11-16T01:11:43.462Z,100.00
2022-11-16T01:14:10.687Z,100.00
2022-11-16T01:16:37.687Z,100.00
2022-11-16T01:19:05.316Z,100.00
2022-11-16T01:21:32.035Z,100.00
2022-11-16T01:23:58.570Z,100.00
2022-11-16T01:26:25.533Z,100.00
2022-11-16T01:28:52.476Z,100.00
2022-11-16T01:31:19.429Z,100.00
2022-11-16T01:33:46.014Z,100.00
2022-11-16T01:36:17.329Z,100.00
2022-11-16T01:38:46.017Z,100.00
2022-11-16T01:41:18.239Z,100.00
2022-11-16T01:44:02.959Z,100.00
2022-11-16T01:46:30.718Z,100.00
2022-11-16T01:49:11.963Z,100.00
2022-11-16T01:51:42.423Z,100.00
2022-11-16T01:54:11.773Z,100.00
2022-11-16T01:56:39.723Z,100.00
2022-11-16T01:59:06.688Z,100.00
2022-11-16T02:01:33.291Z,100.00
2022-11-16T02:03:59.879Z,100.00
2022-11-16T02:06:26.346Z,100.00
2022-11-16T02:09:43.130Z,100.00
2022-11-16T02:12:43.590Z,100.00
2022-11-16T02:15:25.551Z,100.00
2022-11-16T02:18:00.707Z,100.00
2022-11-16T02:20:51.526Z,100.00
2022-11-16T02:23:52.350Z,100.00
2022-11-16T02:26:39.435Z,100.00
2022-11-16T02:29:19.059Z,100.00
2022-11-16T02:31:59.434Z,100.00
2022-11-16T02:34:31.135Z,100.00
2022-11-16T02:37:01.866Z,100.00
2022-11-16T02:39:31.879Z,100.00
2022-11-16T02:42:01.715Z,100.00
2022-11-16T02:44:35.699Z,100.00
2022-11-16T02:47:08.395Z,100.00
2022-11-16T02:49:40.363Z,100.00
2022-11-16T02:52:08.929Z,100.00
2022-11-16T02:54:35.490Z,100.00
2022-11-16T02:57:04.969Z,100.00
2022-11-16T02:59:55.175Z,100.00
2022-11-16T03:02:35.446Z,100.00
2022-11-16T03:05:08.720Z,100.00
2022-11-16T03:07:45.024Z,100.00
2022-11-16T03:10:32.234Z,100.00
2022-11-16T03:13:02.300Z,100.00
2022-11-16T03:15:30.299Z,100.00
2022-11-16T03:17:59.527Z,100.00
2022-11-16T03:20:30.254Z,100.00
2022-11-16T03:23:10.363Z,100.00
2022-11-16T03:25:44.979Z,100.00
2022-11-16T03:28:29.265Z,100.00
2022-11-16T03:31:01.029Z,100.00
2022-11-16T03:33:29.854Z,100.00
2022-11-16T03:36:22.355Z,100.00
2022-11-16T03:38:50.955Z,100.00
2022-11-16T03:41:20.167Z,100.00
2022-11-16T03:43:49.335Z,100.00
2022-11-16T03:46:17.559Z,100.00
2022-11-16T03:48:44.157Z,100.00
2022-11-16T03:51:11.416Z,100.00
2022-11-16T03:53:38.034Z,100.00
2022-11-16T03:56:04.799Z,100.00
2022-11-16T03:58:31.871Z,100.00
2022-11-16T04:00:58.789Z,100.00
2022-11-16T04:03:25.339Z,100.00
2022-11-16T04:06:10.613Z,100.00
2022-11-16T04:08:55.428Z,100.00
2022-11-16T04:11:41.551Z,100.00
2022-11-16T04:14:32.593Z,100.00
2022-11-16T04:17:17.915Z,100.00
2022-11-16T04:20:03.131Z,100.00
2022-11-16T04:22:53.120Z,100.00
2022-11-16T04:25:24.555Z,100.00
2022-11-16T04:28:11.051Z,100.00
2022-11-16T04:30:56.441Z,100.00
2022-11-16T04:33:41.698Z,100.00
2022-11-16T04:36:27.086Z,100.00
2022-11-16T04:38:53.693Z,100.00
2022-11-16T04:41:38.804Z,100.00
2022-11-16T04:44:05.485Z,100.00
2022-11-16T04:46:50.443Z,100.00
2022-11-16T04:49:17.030Z,100.00
2022-11-16T04:51:43.567Z,100.00
2022-11-16T04:54:10.073Z,100.00
2022-11-16T04:56:36.650Z,100.00
2022-11-16T04:59:03.405Z,100.00
2022-11-16T05:01:48.337Z,100.00
2022-11-16T05:04:14.897Z,100.00
2022-11-16T05:06:41.449Z,100.00
2022-11-16T05:09:08.132Z,100.00
2022-11-16T05:11:34.712Z,100.00
2022-11-16T05:14:02.472Z,100.00
2022-11-16T05:16:29.848Z,100.00
2022-11-16T05:19:14.657Z,100.00
2022-11-16T05:21:41.168Z,100.00
2022-11-16T05:24:26.324Z,100.00
2022-11-16T05:26:52.883Z,100.00
2022-11-16T05:29:19.387Z,100.00
2022-11-16T05:31:45.926Z,100.00
2022-11-16T05:34:12.983Z,100.00
2022-11-16T05:36:39.567Z,100.00
2022-11-16T05:39:06.878Z,100.00
2022-11-16T05:41:33.608Z,100.00
2022-11-16T05:44:00.114Z,100.00
2022-11-16T05:46:26.596Z,100.00
2022-11-16T05:48:53.166Z,100.00
2022-11-16T05:51:19.963Z,100.00
2022-11-16T05:53:46.596Z,100.00
2022-11-16T05:56:15.117Z,100.00
2022-11-16T05:58:42.413Z,100.00
2022-11-16T06:01:08.983Z,100.00
2022-11-16T06:03:36.454Z,100.00
2022-11-16T06:06:05.164Z,100.00
2022-11-16T06:08:32.275Z,100.00
2022-11-16T06:11:04.343Z,100.00
2022-11-16T06:13:31.645Z,100.00
2022-11-16T06:15:58.858Z,100.00
2022-11-16T06:18:25.533Z,100.00
2022-11-16T06:20:52.337Z,100.00
2022-11-16T06:23:19.160Z,100.00
2022-11-16T06:25:46.094Z,100.00
2022-11-16T06:28:13.192Z,100.00
2022-11-16T06:30:40.682Z,100.00
2022-11-16T06:33:08.095Z,100.00
2022-11-16T06:35:34.680Z,100.00
2022-11-16T06:38:01.239Z,100.00
2022-11-16T06:40:27.748Z,100.00
2022-11-16T06:42:54.327Z,100.00
2022-11-16T06:45:20.853Z,100.00
2022-11-16T06:47:47.440Z,100.00
2022-11-16T06:50:14.039Z,100.00
2022-11-16T06:52:40.564Z,100.00
2022-11-16T06:55:07.418Z,100.00
2022-11-16T06:57:35.643Z,100.00
2022-11-16T07:00:02.472Z,100.00
2022-11-16T07:02:28.979Z,100.00
2022-11-16T07:05:00.603Z,100.00
2022-11-16T07:07:29.884Z,100.00
2022-11-16T07:09:56.449Z,100.00
2022-11-16T07:12:23.039Z,100.00
2022-11-16T07:14:49.622Z,100.00
2022-11-16T07:17:16.179Z,100.00
2022-11-16T07:19:42.719Z,100.00
2022-11-16T07:22:09.230Z,100.00
2022-11-16T07:24:35.793Z,100.00
2022-11-16T07:27:02.320Z,100.00
2022-11-16T07:29:29.331Z,100.00
2022-11-16T07:31:55.906Z,100.00
2022-11-16T07:34:22.430Z,100.00
2022-11-16T07:36:48.967Z,100.00
2022-11-16T07:39:15.528Z,100.00
2022-11-16T07:41:45.287Z,100.00
2022-11-16T07:44:12.375Z,100.00
2022-11-16T07:46:47.774Z,100.00
2022-11-16T07:49:16.119Z,100.00
2022-11-16T07:51:43.177Z,100.00
2022-11-16T07:54:14.605Z,100.00
2022-11-16T07:56:41.978Z,100.00
2022-11-16T07:59:08.944Z,100.00
2022-11-16T08:01:35.902Z,100.00
2022-11-16T08:04:02.798Z,100.00
2022-11-16T08:06:31.435Z,100.00
2022-11-16T08:08:58.901Z,100.00
2022-11-16T08:11:25.712Z,100.00
2022-11-16T08:13:52.319Z,100.00
2022-11-16T08:16:21.511Z,100.00
2022-11-16T08:18:48.077Z,100.00
2022-11-16T08:21:16.389Z,100.00
2022-11-16T08:23:44.953Z,100.00
2022-11-16T08:26:16.638Z,100.00
2022-11-16T08:28:45.047Z,100.00
2022-11-16T08:31:14.546Z,100.00
2022-11-16T08:33:41.422Z,100.00
2022-11-16T08:36:13.978Z,100.00
2022-11-16T08:38:41.252Z,100.00
2022-11-16T08:41:07.816Z,100.00
2022-11-16T08:43:35.867Z,100.00
2022-11-16T08:46:03.182Z,100.00
2022-11-16T08:48:29.835Z,100.00
2022-11-16T08:51:17.009Z,99.87
2022-11-16T08:53:44.611Z,97.73
2022-11-16T08:56:15.382Z,98.46
2022-11-16T08:58:44.248Z,98.29
2022-11-16T09:01:16.419Z,97.71
2022-11-16T09:03:43.343Z,97.88
2022-11-16T09:06:11.193Z,97.92
2022-11-16T09:08:39.707Z,97.85
2022-11-16T09:11:12.557Z,97.11
2022-11-16T09:13:39.924Z,97.08
2022-11-16T09:16:06.671Z,97.01
2022-11-16T09:18:34.679Z,95.88
2022-11-16T09:21:01.612Z,95.71
2022-11-16T09:23:28.287Z,96.18
2022-11-16T09:25:55.319Z,96.11
2022-11-16T09:28:22.866Z,95.50
2022-11-16T09:30:51.079Z,95.08
2022-11-16T09:33:18.174Z,94.86
2022-11-16T09:35:45.107Z,94.98
2022-11-16T09:38:14.843Z,94.87
2022-11-16T09:40:47.552Z,94.96
2022-11-16T09:43:26.090Z,96.50
2022-11-16T09:46:03.327Z,96.67
2022-11-16T09:48:35.665Z,96.19
2022-11-16T09:51:08.260Z,95.92
2022-11-16T09:53:57.360Z,95.02
2022-11-16T09:56:25.996Z,94.98
2022-11-16T09:59:18.369Z,95.31
2022-11-16T10:01:52.578Z,95.22
2022-11-16T10:04:28.306Z,96.00
2022-11-16T10:07:02.961Z,96.32
2022-11-16T10:09:30.553Z,96.92
2022-11-16T10:12:09.325Z,96.70
2022-11-16T10:15:01.476Z,96.13
2022-11-16T10:17:43.027Z,94.89
2022-11-16T10:20:30.922Z,95.08
2022-11-16T10:23:27.644Z,95.57
2022-11-16T10:26:03.291Z,94.61
2022-11-16T10:29:05.755Z,93.56
2022-11-16T10:31:51.565Z,93.90
2022-11-16T10:34:38.696Z,93.72
2022-11-16T10:37:08.550Z,94.85
2022-11-16T10:39:40.347Z,93.88
2022-11-16T10:42:13.415Z,93.93
2022-11-16T10:45:03.684Z,92.73
2022-11-16T10:47:46.822Z,92.75
2022-11-16T10:50:35.002Z,93.17
2022-11-16T10:53:01.686Z,93.41
2022-11-16T10:55:29.115Z,92.80
2022-11-16T10:58:00.189Z,92.32
2022-11-16T11:00:52.880Z,92.35
2022-11-16T11:03:33.712Z,92.42
2022-11-16T11:06:00.519Z,93.00
2022-11-16T11:08:31.322Z,92.70
2022-11-16T11:11:25.189Z,92.48
2022-11-16T11:14:11.633Z,92.10
2022-11-16T11:16:38.667Z,91.89
2022-11-16T11:19:28.042Z,91.92
2022-11-16T11:22:01.048Z,92.09
2022-11-16T11:24:45.293Z,92.26
2022-11-16T11:27:12.416Z,92.54
2022-11-16T11:29:42.666Z,92.97
2022-11-16T11:32:23.521Z,93.06
2022-11-16T11:34:53.936Z,93.35
2022-11-16T11:37:29.291Z,93.05
2022-11-16T11:40:17.479Z,93.17
2022-11-16T11:43:05.173Z,92.84
2022-11-16T11:45:49.867Z,92.96
2022-11-16T11:48:36.646Z,92.42
2022-11-16T11:51:19.371Z,92.72
2022-11-16T11:53:58.957Z,91.93
2022-11-16T11:56:27.561Z,92.60
2022-11-16T11:58:54.730Z,92.22
2022-11-16T12:01:48.184Z,91.46
2022-11-16T12:04:28.319Z,91.50
2022-11-16T12:07:03.535Z,91.35
2022-11-16T12:09:44.870Z,91.22
2022-11-16T12:12:17.897Z,91.15
2022-11-16T12:15:07.969Z,90.95
2022-11-16T12:18:08.144Z,91.08
2022-11-16T12:20:52.898Z,91.55
2022-11-16T12:23:37.777Z,91.17
2022-11-16T12:26:23.618Z,91.14
2022-11-16T12:29:05.127Z,90.50
2022-11-16T12:31:37.736Z,90.46
2022-11-16T12:34:18.299Z,89.74
2022-11-16T12:37:00.679Z,90.37
2022-11-16T12:39:35.731Z,89.59
2022-11-16T12:42:29.685Z,89.06
2022-11-16T12:45:40.717Z,89.13
2022-11-16T12:48:31.745Z,89.30
2022-11-16T12:51:36.833Z,89.24
2022-11-16T12:54:21.760Z,88.88
2022-11-16T12:56:59.455Z,89.04
2022-11-16T12:59:57.491Z,87.94
2022-11-16T13:02:44.682Z,88.06
2022-11-16T13:05:20.248Z,88.05
2022-11-16T13:08:05.468Z,88.35
2022-11-16T13:10:34.933Z,87.76
2022-11-16T13:13:35.028Z,88.71
2022-11-16T13:15:53.737Z,88.82
2022-11-16T13:18:22.974Z,88.49
2022-11-16T13:21:16.156Z,88.46
2022-11-16T13:24:24.358Z,88.60
2022-11-16T13:27:22.146Z,88.22
2022-11-16T13:29:53.781Z,88.48
2022-11-16T13:32:32.194Z,88.20
2022-11-16T13:35:00.627Z,88.68
2022-11-16T13:37:39.349Z,89.39
2022-11-16T13:40:05.816Z,89.57
2022-11-16T13:42:58.099Z,89.37
2022-11-16T13:45:52.029Z,89.19
2022-11-16T13:48:23.734Z,88.40
2022-11-16T13:50:54.621Z,88.47
2022-11-16T13:56:13.629Z,88.84
2022-11-16T13:58:47.022Z,89.01
2022-11-16T14:01:15.163Z,89.72
2022-11-16T14:03:43.509Z,89.95
2022-11-16T14:06:13.002Z,90.50
2022-11-16T14:08:39.506Z,90.98
2022-11-16T14:11:46.211Z,90.87
2022-11-16T14:14:33.665Z,90.45
2022-11-16T14:17:00.173Z,90.92
2022-11-16T14:19:52.280Z,91.10
2022-11-16T14:22:59.768Z,91.30
2022-11-16T14:25:33.228Z,91.62
2022-11-16T14:28:17.151Z,91.31
2022-11-16T14:30:52.843Z,91.48
2022-11-16T14:33:33.291Z,90.92
2022-11-16T14:36:03.520Z,91.62
2022-11-16T14:38:36.646Z,91.39
2022-11-16T14:41:06.380Z,92.87
2022-11-16T14:43:40.579Z,92.74
2022-11-16T14:46:21.967Z,92.84
2022-11-16T14:48:49.579Z,92.71
2022-11-16T14:51:24.663Z,92.82
2022-11-16T14:53:56.734Z,92.76
2022-11-16T14:56:23.344Z,92.65
2022-11-16T14:58:57.846Z,92.72
2022-11-16T15:01:35.731Z,92.63
2022-11-16T15:04:09.213Z,92.43
2022-11-16T15:06:42.135Z,92.55
2022-11-16T15:09:17.302Z,91.84
2022-11-16T15:12:07.066Z,92.34
2022-11-16T15:14:39.727Z,91.93
2022-11-16T15:17:09.075Z,91.92
2022-11-16T15:19:35.687Z,92.09
2022-11-16T15:22:04.392Z,92.27
2022-11-16T15:24:35.260Z,92.33
2022-11-16T15:27:40.761Z,92.01
2022-11-16T15:30:36.982Z,92.20
2022-11-16T15:33:15.167Z,91.85
2022-11-16T15:35:41.755Z,92.23
2022-11-16T15:38:24.261Z,92.58
2022-11-16T15:40:52.592Z,92.52
2022-11-16T15:43:21.513Z,92.19
2022-11-16T15:45:49.214Z,91.72
2022-11-16T15:48:26.571Z,91.50
2022-11-16T15:51:16.385Z,91.63
2022-11-16T15:53:44.265Z,91.20
2022-11-16T15:56:22.467Z,91.69
2022-11-16T15:58:49.475Z,91.66
2022-11-16T16:01:16.605Z,91.49
2022-11-16T16:03:58.725Z,91.45
2022-11-16T16:06:46.537Z,91.16
2022-11-16T16:09:38.751Z,90.31
2022-11-16T16:12:21.667Z,90.47
2022-11-16T16:14:50.294Z,90.60
2022-11-16T16:17:28.560Z,89.90
2022-11-16T16:20:00.994Z,90.19
2022-11-16T16:22:31.446Z,90.21
2022-11-16T16:24:58.378Z,90.23
2022-11-16T16:27:29.108Z,90.02
2022-11-16T16:29:57.875Z,90.15
2022-11-16T16:32:27.070Z,89.76
2022-11-16T16:34:55.724Z,90.41
2022-11-16T16:37:22.749Z,89.58
2022-11-16T16:39:49.307Z,88.76
2022-11-16T16:42:17.390Z,89.06
2022-11-16T16:44:45.404Z,88.23
2022-11-16T16:47:12.660Z,89.08
2022-11-16T16:49:39.446Z,89.40
2022-11-16T16:52:07.352Z,88.61
2022-11-16T16:54:33.975Z,88.68
2022-11-16T16:57:02.373Z,88.11
2022-11-16T16:59:32.063Z,88.99
2022-11-16T17:01:59.136Z,88.85
2022-11-16T17:04:25.748Z,88.43
2022-11-16T17:06:53.180Z,87.73
2022-11-16T17:09:20.237Z,88.26
2022-11-16T17:11:47.555Z,88.27
2022-11-16T17:14:14.131Z,88.63
2022-11-16T17:16:40.790Z,88.62
2022-11-16T17:19:07.334Z,88.92
2022-11-16T17:21:33.902Z,88.77
2022-11-16T17:24:00.410Z,89.48
2022-11-16T17:26:29.541Z,90.02
2022-11-16T17:28:57.341Z,90.69
2022-11-16T17:31:24.801Z,90.80
2022-11-16T17:33:51.894Z,91.27
2022-11-16T17:36:19.102Z,91.62
2022-11-16T17:38:45.682Z,91.49
2022-11-16T17:41:18.311Z,92.31
2022-11-16T17:43:46.247Z,92.83
2022-11-16T17:46:15.794Z,92.58
2022-11-16T17:48:44.460Z,92.19
2022-11-16T17:51:12.616Z,92.31
2022-11-16T17:53:39.939Z,92.71
2022-11-16T17:56:07.694Z,92.44
2022-11-16T17:58:34.606Z,92.40
2022-11-16T18:01:01.456Z,91.91
2022-11-16T18:03:30.588Z,92.17
2022-11-16T18:06:09.682Z,92.38
2022-11-16T18:08:36.898Z,92.14
2022-11-16T18:11:12.003Z,92.75
2022-11-16T18:13:38.987Z,92.91
2022-11-16T18:16:17.146Z,92.43
2022-11-16T18:18:45.728Z,92.16
2022-11-16T18:21:20.120Z,91.58
2022-11-16T18:23:47.899Z,91.13
2022-11-16T18:26:16.927Z,91.23
2022-11-16T18:28:51.007Z,90.85
2022-11-16T18:31:20.526Z,90.76
2022-11-16T18:33:49.106Z,90.13
2022-11-16T18:36:16.541Z,90.92
2022-11-16T18:38:43.111Z,90.46
2022-11-16T18:41:12.335Z,90.75
2022-11-16T18:44:00.409Z,89.96
2022-11-16T18:46:29.080Z,90.76
2022-11-16T18:48:56.117Z,90.91
2022-11-16T18:51:24.156Z,90.97
2022-11-16T18:53:50.940Z,90.75
2022-11-16T18:56:18.541Z,91.09
2022-11-16T18:58:53.471Z,90.82
2022-11-16T19:01:26.377Z,91.30
2022-11-16T19:03:53.863Z,91.26
2022-11-16T19:06:21.006Z,91.60
2022-11-16T19:08:55.709Z,90.93
2022-11-16T19:11:24.063Z,91.38
2022-11-16T19:13:55.923Z,90.92
2022-11-16T19:16:23.679Z,90.74
2022-11-16T19:18:50.582Z,90.51
2022-11-16T19:21:21.949Z,90.73
2022-11-16T19:23:53.288Z,91.70
2022-11-16T19:26:25.311Z,91.41
2022-11-16T19:28:53.480Z,91.44
2022-11-16T19:31:21.517Z,91.53
2022-11-16T19:34:05.078Z,91.38
2022-11-16T19:36:32.799Z,91.59
2022-11-16T19:38:59.443Z,91.14
2022-11-16T19:41:27.012Z,91.58
2022-11-16T19:43:59.624Z,91.81
2022-11-16T19:46:28.052Z,91.77
2022-11-16T19:48:55.637Z,91.53
2022-11-16T19:51:28.359Z,91.51
2022-11-16T19:53:55.952Z,91.59
2022-11-16T19:56:23.958Z,91.62
2022-11-16T19:58:50.989Z,91.95
2022-11-16T20:01:27.652Z,91.32
2022-11-16T20:03:56.701Z,91.43
2022-11-16T20:06:26.547Z,91.49
2022-11-16T20:08:59.038Z,91.20
2022-11-16T20:11:28.198Z,91.66
2022-11-16T20:13:56.189Z,91.48
2022-11-16T20:16:28.076Z,91.57
2022-11-16T20:18:55.260Z,90.91
2022-11-16T20:21:25.920Z,91.86
2022-11-16T20:23:53.429Z,91.74
2022-11-16T20:26:21.442Z,90.95
2022-11-16T20:28:51.079Z,90.23
2022-11-16T20:31:20.436Z,90.15
2022-11-16T20:33:53.966Z,90.81
2022-11-16T20:36:22.931Z,90.78
2022-11-16T20:38:50.326Z,90.76
2022-11-16T20:41:21.941Z,90.75
2022-11-16T20:43:51.554Z,91.10
2022-11-16T20:46:19.090Z,91.49
2022-11-16T20:48:46.159Z,91.20
2022-11-16T20:51:15.237Z,92.17
2022-11-16T20:53:41.826Z,92.30
2022-11-16T20:56:10.828Z,92.12
2022-11-16T20:58:38.257Z,93.59
2022-11-16T21:01:07.994Z,93.71
2022-11-16T21:03:35.065Z,93.44
2022-11-16T21:06:01.949Z,94.09
2022-11-16T21:08:29.848Z,94.25
2022-11-16T21:10:56.767Z,94.96
2022-11-16T21:13:42.512Z,94.35
2022-11-16T21:16:13.711Z,94.60
2022-11-16T21:18:40.583Z,95.66
2022-11-16T21:21:11.110Z,96.04
2022-11-16T21:23:39.621Z,95.88
2022-11-16T21:26:15.337Z,95.79
2022-11-16T21:28:44.713Z,96.41
2022-11-16T21:31:16.681Z,96.15
2022-11-16T21:33:50.215Z,96.47
2022-11-16T21:36:19.077Z,97.57
2022-11-16T21:38:46.121Z,97.66
2022-11-16T21:41:14.507Z,98.17
2022-11-16T21:43:41.539Z,98.59
2022-11-16T21:46:11.695Z,98.64
2022-11-16T21:48:39.057Z,98.66
2022-11-16T21:51:11.284Z,98.64
2022-11-16T21:53:38.489Z,98.31
2022-11-16T21:56:06.568Z,98.88
2022-11-16T21:58:33.183Z,98.89
2022-11-16T22:01:02.189Z,99.02
2022-11-16T22:03:31.034Z,98.93
2022-11-16T22:06:18.591Z,99.18
2022-11-16T22:08:46.080Z,99.49
2022-11-16T22:11:13.703Z,100.00
2022-11-16T22:13:40.872Z,99.83
2022-11-16T22:16:09.544Z,98.99
2022-11-16T22:18:36.649Z,99.64
2022-11-16T22:21:03.713Z,99.96
2022-11-16T22:23:30.768Z,99.90
2022-11-16T22:26:08.461Z,100.00
2022-11-16T22:28:35.296Z,100.00
2022-11-16T22:31:04.247Z,100.00
2022-11-16T22:33:31.809Z,100.00
2022-11-16T22:35:59.024Z,100.00
2022-11-16T22:38:26.293Z,100.00
2022-11-16T22:40:54.943Z,100.00
2022-11-16T22:43:24.593Z,100.00
2022-11-16T22:45:51.413Z,100.00
2022-11-16T22:48:18.208Z,100.00
2022-11-16T22:50:44.730Z,100.00
2022-11-16T22:53:11.353Z,100.00
2022-11-16T22:55:38.852Z,100.00
2022-11-16T22:58:05.926Z,100.00
2022-11-16T23:00:38.937Z,100.00
2022-11-16T23:03:05.658Z,100.00
2022-11-16T23:05:32.202Z,99.89
2022-11-16T23:07:58.745Z,100.00
2022-11-16T23:10:25.249Z,100.00
2022-11-16T23:13:10.159Z,99.89
2022-11-16T23:15:51.595Z,99.62
2022-11-16T23:18:19.681Z,99.50
2022-11-16T23:21:12.660Z,99.42
2022-11-16T23:23:57.510Z,99.11
2022-11-16T23:26:44.642Z,98.72
2022-11-16T23:29:11.707Z,99.16
2022-11-16T23:31:38.542Z,99.67
2022-11-16T23:34:05.382Z,99.62
2022-11-16T23:36:31.963Z,99.77
2022-11-16T23:38:58.520Z,100.00
2022-11-16T23:41:43.747Z,100.00
2022-11-16T23:44:10.362Z,100.00
2022-11-16T23:46:36.944Z,100.00
2022-11-16T23:49:03.474Z,100.00
2022-11-16T23:51:29.991Z,100.00
2022-11-16T23:53:56.665Z,100.00
2022-11-16T23:56:23.587Z,100.00
2022-11-16T23:58:50.263Z,100.00
